createdAt,value
2023-05-01T00:01:25.595Z,66.90
2023-05-01T00:03:54.675Z,67.00
2023-05-01T00:06:22.565Z,66.90
2023-05-01T00:08:50.330Z,67.00
2023-05-01T00:11:18.027Z,67.80
2023-05-01T00:13:47.040Z,66.90
2023-05-01T00:16:16.798Z,66.90
2023-05-01T00:18:44.713Z,67.00
2023-05-01T00:21:12.399Z,67.00
2023-05-01T00:23:40.074Z,67.00
2023-05-01T00:26:07.939Z,67.00
2023-05-01T00:28:36.338Z,66.90
2023-05-01T00:31:05.548Z,66.90
2023-05-01T00:33:33.265Z,66.90
2023-05-01T00:36:01.090Z,67.00
2023-05-01T00:38:28.866Z,66.90
2023-05-01T00:40:56.574Z,67.20
2023-05-01T00:43:24.269Z,67.80
2023-05-01T00:45:52.101Z,67.00
2023-05-01T00:48:21.410Z,67.00
2023-05-01T00:50:50.596Z,67.00
2023-05-01T00:53:18.810Z,67.00
2023-05-01T00:55:47.490Z,67.00
2023-05-01T00:58:17.786Z,67.00
2023-05-01T01:00:45.602Z,67.00
2023-05-01T01:03:13.423Z,67.00
2023-05-01T01:05:47.501Z,67.00
2023-05-01T01:08:24.826Z,67.00
2023-05-01T01:10:59.160Z,67.00
2023-05-01T01:13:33.134Z,67.00
2023-05-01T01:16:09.897Z,67.00
2023-05-01T01:18:42.345Z,67.00
2023-05-01T01:21:17.619Z,67.00
2023-05-01T01:24:22.474Z,67.00
2023-05-01T01:27:04.842Z,67.00
2023-05-01T01:30:08.390Z,67.00
2023-05-01T01:33:23.518Z,67.00
2023-05-01T01:35:57.375Z,67.00
2023-05-01T01:38:33.301Z,67.00
2023-05-01T01:41:07.886Z,67.10
2023-05-01T01:43:41.378Z,67.10
2023-05-01T01:46:11.759Z,67.10
2023-05-01T01:48:43.443Z,67.10
2023-05-01T01:51:17.416Z,67.10
2023-05-01T01:53:49.072Z,67.10
2023-05-01T01:56:19.617Z,67.10
2023-05-01T01:58:49.131Z,67.00
2023-05-01T02:01:19.608Z,67.00
2023-05-01T02:03:48.789Z,67.80
2023-05-01T02:06:18.849Z,67.20
2023-05-01T02:08:49.412Z,67.10
2023-05-01T02:11:21.342Z,67.00
2023-05-01T02:13:50.469Z,67.00
2023-05-01T02:16:19.998Z,67.10
2023-05-01T02:18:48.184Z,67.10
2023-05-01T02:21:16.965Z,67.00
2023-05-01T02:23:46.104Z,67.00
2023-05-01T02:26:17.321Z,67.00
2023-05-01T02:28:45.250Z,67.10
2023-05-01T02:31:13.763Z,67.10
2023-05-01T02:33:41.501Z,67.10
2023-05-01T02:36:09.773Z,67.00
2023-05-01T02:38:38.238Z,67.10
2023-05-01T02:41:08.734Z,67.10
2023-05-01T02:43:39.619Z,67.10
2023-05-01T02:46:10.349Z,67.10
2023-05-01T02:48:39.752Z,67.20
2023-05-01T02:51:08.799Z,67.10
2023-05-01T02:53:37.329Z,67.10
2023-05-01T02:56:17.133Z,67.10
2023-05-01T02:58:45.139Z,67.10
2023-05-01T03:01:12.882Z,67.10
2023-05-01T03:03:40.657Z,67.10
2023-05-01T03:06:08.474Z,67.10
2023-05-01T03:08:36.453Z,67.20
2023-05-01T03:11:06.335Z,67.20
2023-05-01T03:13:35.614Z,67.20
2023-05-01T03:16:04.494Z,67.20
2023-05-01T03:18:32.321Z,67.10
2023-05-01T03:20:59.999Z,67.20
2023-05-01T03:23:28.896Z,67.20
2023-05-01T03:25:57.380Z,67.20
2023-05-01T03:28:25.119Z,67.20
2023-05-01T03:30:55.359Z,67.20
2023-05-01T03:33:23.160Z,67.20
2023-05-01T03:36:00.429Z,67.20
2023-05-01T03:38:28.564Z,67.20
2023-05-01T03:41:11.398Z,67.20
2023-05-01T03:44:06.547Z,67.20
2023-05-01T03:46:40.728Z,67.20
2023-05-01T03:49:12.283Z,67.20
2023-05-01T03:51:46.562Z,67.20
2023-05-01T03:54:14.533Z,67.20
2023-05-01T03:57:00.464Z,67.20
2023-05-01T03:59:28.239Z,67.20
2023-05-01T04:01:57.954Z,67.20
2023-05-01T04:04:29.714Z,67.30
2023-05-01T04:06:59.076Z,67.30
2023-05-01T04:09:26.874Z,67.30
2023-05-01T04:11:54.564Z,67.30
2023-05-01T04:14:22.643Z,67.30
2023-05-01T04:16:50.987Z,67.30
2023-05-01T04:19:20.700Z,67.20
2023-05-01T04:21:54.152Z,67.20
2023-05-01T04:24:22.334Z,67.20
2023-05-01T04:26:50.321Z,67.20
2023-05-01T04:29:18.061Z,67.20
2023-05-01T04:31:45.976Z,67.20
2023-05-01T04:34:13.706Z,67.20
2023-05-01T04:36:42.930Z,67.20
2023-05-01T04:39:10.694Z,67.10
2023-05-01T04:41:38.489Z,67.10
2023-05-01T04:44:06.800Z,67.10
2023-05-01T04:46:34.587Z,67.10
2023-05-01T04:49:02.375Z,67.10
2023-05-01T04:51:30.997Z,67.00
2023-05-01T04:54:00.274Z,67.00
2023-05-01T04:56:28.996Z,67.00
2023-05-01T04:59:01.257Z,67.00
2023-05-01T05:01:30.827Z,67.00
2023-05-01T05:03:58.839Z,66.90
2023-05-01T05:06:27.067Z,67.00
2023-05-01T05:08:55.671Z,66.90
2023-05-01T05:11:24.754Z,66.90
2023-05-01T05:14:02.012Z,66.90
2023-05-01T05:16:30.130Z,66.90
2023-05-01T05:18:58.459Z,66.80
2023-05-01T05:21:28.585Z,66.80
2023-05-01T05:23:58.391Z,66.90
2023-05-01T05:26:27.787Z,66.80
2023-05-01T05:28:59.139Z,66.80
2023-05-01T05:31:26.897Z,66.80
2023-05-01T05:33:54.734Z,66.80
2023-05-01T05:36:24.781Z,66.80
2023-05-01T05:38:52.752Z,66.70
2023-05-01T05:41:20.546Z,66.70
2023-05-01T05:43:54.011Z,66.70
2023-05-01T05:46:21.954Z,66.70
2023-05-01T05:48:49.898Z,66.70
2023-05-01T05:51:17.794Z,66.90
2023-05-01T05:53:45.574Z,67.20
2023-05-01T05:56:13.619Z,67.50
2023-05-01T05:58:41.311Z,67.70
2023-05-01T06:01:11.829Z,67.80
2023-05-01T06:03:40.567Z,67.90
2023-05-01T06:06:08.560Z,67.90
2023-05-01T06:08:37.461Z,67.90
2023-05-01T06:11:09.276Z,68.00
2023-05-01T06:13:38.662Z,68.00
2023-05-01T06:16:08.243Z,67.90
2023-05-01T06:18:37.572Z,67.90
2023-05-01T06:21:05.613Z,67.90
2023-05-01T06:23:34.607Z,67.90
2023-05-01T06:26:23.149Z,67.90
2023-05-01T06:28:51.123Z,67.90
2023-05-01T06:31:19.445Z,67.90
2023-05-01T06:33:53.298Z,67.90
2023-05-01T06:36:28.665Z,67.90
2023-05-01T06:38:57.225Z,67.90
2023-05-01T06:41:25.823Z,67.80
2023-05-01T06:43:53.594Z,67.80
2023-05-01T06:46:21.395Z,67.80
2023-05-01T06:48:49.161Z,67.70
2023-05-01T06:51:18.300Z,67.70
2023-05-01T06:53:46.787Z,67.70
2023-05-01T06:56:14.552Z,67.60
2023-05-01T06:58:42.305Z,67.40
2023-05-01T07:01:10.070Z,67.30
2023-05-01T07:03:37.820Z,67.10
2023-05-01T07:06:05.805Z,66.90
2023-05-01T07:08:34.868Z,66.70
2023-05-01T07:11:02.725Z,66.60
2023-05-01T07:13:30.445Z,66.50
2023-05-01T07:15:58.158Z,66.40
2023-05-01T07:18:25.936Z,66.30
2023-05-01T07:20:53.718Z,66.30
2023-05-01T07:23:23.471Z,66.20
2023-05-01T07:25:53.490Z,66.10
2023-05-01T07:28:21.787Z,66.10
2023-05-01T07:30:49.650Z,66.10
2023-05-01T07:33:17.380Z,66.10
2023-05-01T07:35:45.209Z,66.10
2023-05-01T07:38:13.901Z,66.10
2023-05-01T07:40:41.922Z,66.10
2023-05-01T07:43:11.715Z,66.10
2023-05-01T07:45:39.882Z,66.10
2023-05-01T07:48:07.804Z,66.20
2023-05-01T07:50:36.198Z,66.30
2023-05-01T07:53:04.590Z,66.20
2023-05-01T07:55:32.283Z,66.20
2023-05-01T07:57:59.994Z,66.30
2023-05-01T08:00:28.988Z,66.30
2023-05-01T08:02:56.731Z,66.40
2023-05-01T08:05:24.544Z,66.40
2023-05-01T08:07:52.275Z,66.40
2023-05-01T08:10:20.012Z,66.30
2023-05-01T08:12:47.737Z,66.30
2023-05-01T08:15:16.535Z,66.30
2023-05-01T08:17:46.794Z,66.20
2023-05-01T08:20:14.681Z,66.30
2023-05-01T08:22:42.421Z,66.20
2023-05-01T08:25:10.233Z,66.20
2023-05-01T08:27:38.082Z,66.20
2023-05-01T08:30:06.925Z,66.30
2023-05-01T08:32:34.660Z,66.20
2023-05-01T08:35:03.994Z,66.30
2023-05-01T08:37:31.702Z,66.20
2023-05-01T08:39:59.498Z,66.20
2023-05-01T08:42:27.733Z,66.20
2023-05-01T08:44:59.182Z,66.20
2023-05-01T08:47:29.092Z,66.20
2023-05-01T08:49:57.334Z,66.20
2023-05-01T08:52:28.012Z,66.20
2023-05-01T08:54:56.864Z,66.20
2023-05-01T08:57:25.196Z,66.20
2023-05-01T08:59:57.958Z,66.30
2023-05-01T09:02:27.578Z,66.40
2023-05-01T09:04:55.717Z,66.40
2023-05-01T09:07:23.467Z,66.60
2023-05-01T09:09:52.448Z,66.60
2023-05-01T09:12:25.476Z,66.50
2023-05-01T09:14:55.974Z,66.70
2023-05-01T09:17:25.068Z,66.70
2023-05-01T09:19:53.335Z,66.70
2023-05-01T09:22:22.170Z,66.70
2023-05-01T09:24:50.084Z,66.70
2023-05-01T09:27:19.328Z,66.70
2023-05-01T09:29:48.254Z,66.70
2023-05-01T09:32:20.441Z,66.70
2023-05-01T09:34:49.140Z,66.70
2023-05-01T09:37:28.576Z,66.70
2023-05-01T09:40:08.287Z,66.70
2023-05-01T09:42:39.394Z,66.70
2023-05-01T09:45:14.183Z,66.70
2023-05-01T09:47:42.489Z,66.70
2023-05-01T09:50:11.392Z,66.70
2023-05-01T09:52:39.154Z,66.70
2023-05-01T09:55:14.502Z,66.80
2023-05-01T09:57:45.080Z,66.70
2023-05-01T10:00:15.230Z,66.80
2023-05-01T10:02:47.745Z,66.80
2023-05-01T10:05:16.854Z,66.80
2023-05-01T10:07:58.092Z,66.80
2023-05-01T10:10:26.197Z,67.00
2023-05-01T10:12:55.706Z,66.80
2023-05-01T10:15:26.975Z,66.90
2023-05-01T10:17:55.422Z,67.00
2023-05-01T10:20:23.289Z,67.00
2023-05-01T10:22:51.290Z,67.00
2023-05-01T10:25:20.765Z,67.00
2023-05-01T10:27:49.687Z,67.00
2023-05-01T10:30:19.359Z,67.00
2023-05-01T10:32:47.403Z,66.90
2023-05-01T10:35:20.507Z,66.80
2023-05-01T10:37:49.936Z,66.70
2023-05-01T10:40:46.925Z,66.70
2023-05-01T10:43:16.800Z,66.60
2023-05-01T10:45:46.201Z,66.60
2023-05-01T10:48:34.523Z,66.60
2023-05-01T10:51:10.449Z,67.80
2023-05-01T10:53:38.563Z,67.10
2023-05-01T10:56:07.386Z,67.10
2023-05-01T10:58:56.742Z,67.10
2023-05-01T11:01:33.789Z,66.90
2023-05-01T11:04:03.996Z,66.60
2023-05-01T11:06:32.713Z,66.30
2023-05-01T11:09:00.911Z,65.90
2023-05-01T11:11:50.623Z,65.50
2023-05-01T11:14:18.627Z,65.10
2023-05-01T11:16:49.012Z,64.80
2023-05-01T11:19:50.631Z,64.50
2023-05-01T11:22:19.279Z,64.20
2023-05-01T11:24:47.878Z,63.80
2023-05-01T11:27:16.705Z,63.60
2023-05-01T11:29:48.354Z,63.40
2023-05-01T11:32:27.966Z,63.30
2023-05-01T11:34:56.161Z,63.20
2023-05-01T11:37:42.412Z,63.20
2023-05-01T11:40:20.842Z,63.40
2023-05-01T11:42:48.728Z,63.50
2023-05-01T11:45:16.429Z,63.60
2023-05-01T11:47:45.506Z,63.60
2023-05-01T11:50:13.397Z,63.50
2023-05-01T11:52:45.654Z,63.50
2023-05-01T11:55:13.614Z,63.50
2023-05-01T11:57:49.486Z,63.50
2023-05-01T12:00:26.720Z,63.50
2023-05-01T12:03:00.087Z,63.60
2023-05-01T12:05:29.278Z,63.70
2023-05-01T12:08:14.683Z,63.70
2023-05-01T12:10:44.232Z,63.90
2023-05-01T12:13:13.556Z,64.00
2023-05-01T12:15:44.156Z,64.10
2023-05-01T12:18:15.109Z,64.20
2023-05-01T12:20:44.380Z,64.30
2023-05-01T12:23:13.711Z,64.40
2023-05-01T12:25:42.806Z,64.50
2023-05-01T12:28:13.013Z,64.60
2023-05-01T12:30:41.217Z,64.70
2023-05-01T12:33:11.458Z,64.90
2023-05-01T12:35:41.423Z,64.90
2023-05-01T12:38:13.598Z,65.00
2023-05-01T12:40:42.102Z,65.00
2023-05-01T12:43:09.865Z,65.50
2023-05-01T12:45:41.308Z,65.20
2023-05-01T12:48:15.727Z,65.30
2023-05-01T12:50:47.500Z,65.30
2023-05-01T12:53:15.915Z,65.40
2023-05-01T12:55:46.596Z,65.40
2023-05-01T12:58:14.968Z,65.40
2023-05-01T13:00:44.921Z,65.50
2023-05-01T13:03:13.419Z,65.50
2023-05-01T13:05:56.377Z,65.50
2023-05-01T13:08:29.000Z,65.70
2023-05-01T13:10:57.780Z,65.70
2023-05-01T13:13:30.444Z,65.70
2023-05-01T13:16:06.096Z,65.80
2023-05-01T13:18:34.712Z,65.80
2023-05-01T13:21:11.864Z,65.80
2023-05-01T13:23:39.909Z,65.80
2023-05-01T13:26:08.455Z,65.90
2023-05-01T13:28:38.434Z,66.00
2023-05-01T13:31:12.691Z,66.00
2023-05-01T13:33:41.383Z,66.00
2023-05-01T13:36:24.514Z,66.00
2023-05-01T13:38:55.623Z,66.00
2023-05-01T13:41:26.453Z,66.00
2023-05-01T13:43:55.879Z,66.90
2023-05-01T13:46:25.855Z,66.10
2023-05-01T13:48:53.840Z,66.10
2023-05-01T13:51:24.620Z,66.10
2023-05-01T13:53:53.233Z,66.20
2023-05-01T13:56:22.234Z,66.20
2023-05-01T13:58:50.391Z,66.10
2023-05-01T14:01:20.489Z,66.10
2023-05-01T14:03:50.156Z,66.30
2023-05-01T14:06:19.238Z,66.30
2023-05-01T14:08:49.870Z,66.20
2023-05-01T14:11:18.080Z,66.40
2023-05-01T14:13:46.923Z,66.30
2023-05-01T14:16:24.028Z,66.40
2023-05-01T14:18:54.429Z,66.50
2023-05-01T14:21:23.811Z,66.50
2023-05-01T14:23:53.862Z,66.40
2023-05-01T14:26:23.769Z,66.50
2023-05-01T14:28:51.826Z,66.50
2023-05-01T14:31:28.311Z,66.50
2023-05-01T14:33:57.560Z,66.60
2023-05-01T14:36:26.503Z,66.50
2023-05-01T14:38:57.388Z,66.50
2023-05-01T14:41:25.473Z,66.60
2023-05-01T14:43:54.096Z,66.60
2023-05-01T14:46:29.626Z,66.70
2023-05-01T14:48:57.732Z,66.70
2023-05-01T14:51:25.614Z,66.70
2023-05-01T14:53:54.949Z,66.70
2023-05-01T14:56:22.791Z,66.70
2023-05-01T14:58:50.846Z,66.70
2023-05-01T15:01:18.750Z,66.70
2023-05-01T15:03:46.613Z,66.60
2023-05-01T15:06:14.546Z,66.80
2023-05-01T15:08:42.662Z,66.70
2023-05-01T15:11:13.913Z,66.50
2023-05-01T15:13:42.586Z,66.40
2023-05-01T15:16:10.813Z,66.30
2023-05-01T15:18:38.673Z,66.00
2023-05-01T15:21:06.428Z,65.80
2023-05-01T15:23:34.239Z,65.40
2023-05-01T15:26:01.958Z,65.10
2023-05-01T15:28:32.066Z,64.70
2023-05-01T15:31:00.072Z,64.30
2023-05-01T15:33:27.985Z,64.00
2023-05-01T15:35:55.752Z,63.50
2023-05-01T15:38:24.008Z,63.10
2023-05-01T15:40:52.204Z,62.90
2023-05-01T15:43:21.000Z,62.50
2023-05-01T15:45:51.293Z,62.20
2023-05-01T15:48:19.142Z,61.90
2023-05-01T15:50:49.015Z,61.80
2023-05-01T15:53:17.597Z,61.60
2023-05-01T15:55:45.327Z,61.50
2023-05-01T15:58:13.032Z,61.40
2023-05-01T16:00:40.731Z,61.20
2023-05-01T16:03:09.951Z,61.00
2023-05-01T16:05:39.066Z,61.00
2023-05-01T16:08:07.510Z,60.80
2023-05-01T16:10:36.896Z,60.70
2023-05-01T16:13:06.105Z,60.60
2023-05-01T16:15:34.372Z,60.60
2023-05-01T16:18:04.814Z,60.60
2023-05-01T16:20:39.768Z,60.50
2023-05-01T16:23:08.502Z,60.50
2023-05-01T16:25:36.260Z,60.50
2023-05-01T16:28:06.412Z,60.50
2023-05-01T16:30:34.224Z,60.50
2023-05-01T16:33:02.941Z,60.50
2023-05-01T16:35:31.654Z,60.60
2023-05-01T16:38:01.711Z,60.50
2023-05-01T16:40:29.448Z,60.50
2023-05-01T16:43:00.724Z,60.70
2023-05-01T16:45:28.904Z,60.80
2023-05-01T16:47:58.597Z,60.90
2023-05-01T16:50:27.559Z,61.90
2023-05-01T16:52:55.908Z,61.10
2023-05-01T16:55:26.947Z,61.30
2023-05-01T16:57:55.221Z,61.50
2023-05-01T17:00:23.145Z,61.60
2023-05-01T17:02:52.269Z,61.70
2023-05-01T17:05:20.388Z,62.20
2023-05-01T17:07:48.080Z,62.10
2023-05-01T17:10:16.141Z,62.20
2023-05-01T17:12:45.274Z,62.30
2023-05-01T17:15:13.087Z,62.40
2023-05-01T17:17:40.849Z,62.50
2023-05-01T17:20:10.718Z,62.70
2023-05-01T17:22:38.410Z,62.80
2023-05-01T17:25:07.149Z,62.90
2023-05-01T17:27:34.843Z,63.00
2023-05-01T17:30:04.514Z,63.00
2023-05-01T17:32:37.084Z,63.10
2023-05-01T17:35:06.084Z,63.20
2023-05-01T17:37:33.985Z,63.30
2023-05-01T17:40:02.224Z,63.40
2023-05-01T17:42:30.224Z,63.50
2023-05-01T17:44:57.891Z,63.60
2023-05-01T17:47:27.494Z,63.70
2023-05-01T17:49:55.344Z,64.60
2023-05-01T17:52:23.318Z,63.70
2023-05-01T17:54:51.040Z,63.80
2023-05-01T17:57:18.732Z,63.90
2023-05-01T17:59:46.555Z,64.00
2023-05-01T18:02:14.279Z,64.00
2023-05-01T18:04:43.355Z,64.10
2023-05-01T18:07:11.081Z,64.10
2023-05-01T18:09:38.754Z,64.20
2023-05-01T18:12:06.624Z,64.30
2023-05-01T18:14:34.445Z,64.40
2023-05-01T18:17:02.232Z,64.40
2023-05-01T18:19:30.097Z,64.40
2023-05-01T18:21:59.156Z,64.50
2023-05-01T18:24:27.299Z,64.60
2023-05-01T18:26:54.986Z,64.70
2023-05-01T18:29:22.980Z,64.80
2023-05-01T18:31:51.535Z,64.90
2023-05-01T18:34:19.993Z,65.00
2023-05-01T18:36:51.882Z,65.10
2023-05-01T18:39:22.319Z,65.20
2023-05-01T18:41:50.254Z,65.30
2023-05-01T18:44:18.137Z,65.60
2023-05-01T18:46:46.453Z,66.30
2023-05-01T18:49:14.210Z,66.80
2023-05-01T18:51:41.920Z,67.20
2023-05-01T18:54:09.960Z,67.50
2023-05-01T18:56:39.046Z,67.90
2023-05-01T18:59:06.959Z,68.10
2023-05-01T19:01:34.798Z,68.30
2023-05-01T19:04:02.525Z,69.40
2023-05-01T19:06:31.259Z,68.60
2023-05-01T19:08:59.408Z,68.80
2023-05-01T19:11:30.250Z,69.00
2023-05-01T19:13:59.328Z,68.90
2023-05-01T19:16:27.138Z,69.20
2023-05-01T19:18:54.854Z,69.20
2023-05-01T19:21:22.552Z,69.30
2023-05-01T19:23:50.333Z,69.20
2023-05-01T19:26:18.047Z,69.40
2023-05-01T19:28:45.782Z,69.40
2023-05-01T19:31:14.982Z,69.40
2023-05-01T19:33:42.744Z,69.30
2023-05-01T19:36:10.447Z,69.30
2023-05-01T19:38:38.176Z,69.30
2023-05-01T19:41:05.881Z,69.40
2023-05-01T19:43:33.604Z,69.30
2023-05-01T19:46:01.823Z,69.30
2023-05-01T19:48:30.875Z,69.30
2023-05-01T19:50:58.574Z,69.30
2023-05-01T19:53:27.688Z,69.30
2023-05-01T19:55:55.371Z,69.20
2023-05-01T19:58:23.075Z,69.20
2023-05-01T20:00:50.934Z,69.20
2023-05-01T20:03:18.727Z,69.10
2023-05-01T20:05:47.842Z,69.10
2023-05-01T20:08:15.570Z,69.10
2023-05-01T20:10:43.255Z,69.20
2023-05-01T20:13:11.351Z,69.20
2023-05-01T20:15:39.742Z,69.30
2023-05-01T20:18:07.499Z,69.30
2023-05-01T20:20:35.255Z,69.30
2023-05-01T20:23:12.298Z,69.30
2023-05-01T20:25:40.275Z,69.40
2023-05-01T20:28:09.208Z,69.40
2023-05-01T20:30:38.980Z,69.40
2023-05-01T20:33:06.783Z,69.40
2023-05-01T20:35:35.430Z,70.20
2023-05-01T20:38:04.361Z,69.40
2023-05-01T20:40:34.358Z,69.40
2023-05-01T20:43:02.039Z,69.40
2023-05-01T20:45:30.830Z,69.40
2023-05-01T20:47:58.975Z,69.40
2023-05-01T20:50:27.676Z,69.40
2023-05-01T20:52:56.092Z,69.40
2023-05-01T20:55:24.300Z,69.40
2023-05-01T20:57:53.328Z,69.40
2023-05-01T21:00:21.031Z,69.40
2023-05-01T21:02:48.816Z,69.40
2023-05-01T21:05:17.095Z,69.40
2023-05-01T21:07:44.854Z,69.40
2023-05-01T21:10:14.366Z,69.40
2023-05-01T21:12:42.519Z,69.40
2023-05-01T21:15:12.339Z,69.40
2023-05-01T21:17:43.143Z,69.40
2023-05-01T21:20:16.304Z,69.40
2023-05-01T21:22:45.490Z,69.40
2023-05-01T21:25:16.386Z,69.30
2023-05-01T21:27:44.200Z,69.30
2023-05-01T21:30:16.807Z,69.30
2023-05-01T21:32:45.276Z,69.30
2023-05-01T21:35:17.321Z,69.10
2023-05-01T21:37:46.593Z,69.10
2023-05-01T21:40:15.518Z,69.10
2023-05-01T21:42:43.474Z,69.90
2023-05-01T21:45:13.602Z,69.10
2023-05-01T21:47:44.282Z,69.10
2023-05-01T21:50:13.365Z,69.10
2023-05-01T21:52:41.494Z,69.10
2023-05-01T21:55:11.115Z,69.10
2023-05-01T21:57:40.223Z,69.10
2023-05-01T22:00:10.152Z,69.10
2023-05-01T22:02:43.540Z,69.10
2023-05-01T22:05:12.265Z,69.10
2023-05-01T22:07:41.091Z,69.10
2023-05-01T22:10:11.553Z,69.00
2023-05-01T22:12:39.570Z,69.10
2023-05-01T22:15:08.727Z,69.10
2023-05-01T22:17:36.765Z,69.00
2023-05-01T22:20:08.943Z,69.00
2023-05-01T22:22:37.902Z,69.00
2023-05-01T22:25:06.428Z,69.10
2023-05-01T22:27:34.593Z,69.00
2023-05-01T22:30:02.936Z,69.00
2023-05-01T22:32:31.165Z,69.00
2023-05-01T22:34:59.339Z,68.90
2023-05-01T22:37:28.605Z,68.80
2023-05-01T22:39:56.553Z,68.80
2023-05-01T22:42:24.279Z,68.80
2023-05-01T22:44:52.127Z,68.80
2023-05-01T22:47:19.849Z,68.80
2023-05-01T22:49:47.691Z,68.80
2023-05-01T22:52:15.421Z,68.80
2023-05-01T22:54:44.466Z,68.80
2023-05-01T22:57:12.157Z,68.80
2023-05-01T22:59:40.853Z,68.90
2023-05-01T23:02:09.117Z,68.80
2023-05-01T23:04:36.929Z,68.80
2023-05-01T23:07:04.612Z,68.80
2023-05-01T23:09:32.856Z,68.80
2023-05-01T23:12:02.145Z,68.80
2023-05-01T23:14:29.832Z,68.80
2023-05-01T23:16:57.948Z,68.80
2023-05-01T23:19:26.699Z,68.80
2023-05-01T23:22:07.105Z,68.80
2023-05-01T23:24:42.520Z,68.80
2023-05-01T23:27:13.313Z,68.80
2023-05-01T23:29:41.336Z,68.80
2023-05-01T23:32:10.730Z,68.80
2023-05-01T23:34:40.961Z,68.70
2023-05-01T23:37:08.750Z,68.80
2023-05-01T23:39:36.422Z,68.70
2023-05-01T23:42:04.171Z,68.80
2023-05-01T23:44:33.538Z,68.70
2023-05-01T23:47:01.365Z,68.80
2023-05-01T23:49:29.075Z,68.70
2023-05-01T23:51:57.162Z,68.70
2023-05-01T23:54:24.859Z,68.70
2023-05-01T23:56:52.599Z,68.70
2023-05-01T23:59:20.326Z,68.70
